Time;durP1;ratioP1;P1;durP2;ratioP2;P2;SDS_P1;SDS_P2;PMS_P1;PMS_P2;Temp;Humidity;BMP_temperature;BMP_pressure;BME280_temperature;BME280_humidity;BME280_pressure;Samples;Min_cycle;Max_cycle;Signal;HPM_P1;HPM_P2
2023/06/08 00:02:07;;;;;;;8.77;7.90;;;;;;;17.27;83.16;100793.97;5082964;28;20222;-80
2023/06/08 00:04:34;;;;;;;8.70;8.10;;;;;;;17.26;83.71;100760.56;5081930;28;20208;-80
2023/06/08 00:07:03;;;;;;;8.80;8.03;;;;;;;17.19;84.51;100753.84;5081637;28;20674;-82
2023/06/08 00:09:30;;;;;;;8.53;7.73;;;;;;;17.11;85.30;100737.47;5081488;28;20222;-82
2023/06/08 00:11:58;;;;;;;11.10;8.40;;;;;;;17.05;85.87;100718.34;5081688;28;20634;-81
2023/06/08 00:14:25;;;;;;;8.80;8.10;;;;;;;17.20;86.65;100698.34;5082042;28;20219;-82
2023/06/08 00:16:52;;;;;;;9.13;8.20;;;;;;;17.09;86.05;100702.41;5081938;28;20211;-82
2023/06/08 00:19:20;;;;;;;8.93;8.20;;;;;;;16.93;87.24;100689.84;5080895;28;20233;-83
2023/06/08 00:21:50;;;;;;;9.67;8.77;;;;;;;16.93;87.83;100681.09;5081614;28;20239;-79
2023/06/08 00:24:19;;;;;;;8.80;7.90;;;;;;;16.89;88.55;100672.44;5082434;28;20295;-80
2023/06/08 00:26:46;;;;;;;8.27;7.57;;;;;;;16.95;88.77;100672.19;5081313;28;20246;-82
2023/06/08 00:29:15;;;;;;;8.43;7.63;;;;;;;16.79;89.38;100652.63;5081299;28;20212;-82
2023/06/08 00:31:42;;;;;;;10.30;9.30;;;;;;;16.65;90.87;100638.22;5081132;28;20314;-80
2023/06/08 00:34:12;;;;;;;10.60;9.60;;;;;;;16.60;91.42;100616.44;5080198;28;20212;-82
2023/06/08 00:36:39;;;;;;;11.17;10.13;;;;;;;16.56;91.08;100614.03;5081570;28;20307;-80
2023/06/08 00:39:06;;;;;;;9.63;8.73;;;;;;;16.60;90.59;100629.63;5080033;28;20212;-82
2023/06/08 00:41:34;;;;;;;9.60;8.70;;;;;;;16.61;90.68;100625.22;5080093;28;20280;-82
2023/06/08 00:44:01;;;;;;;9.03;8.30;;;;;;;16.65;90.56;100640.00;5079964;28;20209;-82
2023/06/08 00:46:30;;;;;;;8.93;8.13;;;;;;;16.75;90.48;100636.06;5081809;28;20212;-82
2023/06/08 00:48:59;;;;;;;10.90;8.10;;;;;;;16.86;89.75;100644.41;5081913;28;20208;-82
2023/06/08 00:51:31;;;;;;;17.23;8.07;;;;;;;16.88;88.64;100668.91;5082776;28;20214;-82
2023/06/08 00:53:59;;;;;;;9.07;7.77;;;;;;;16.97;87.78;100690.59;5082525;28;20648;-82
2023/06/08 00:56:27;;;;;;;8.80;8.00;;;;;;;16.98;86.63;100730.06;5080778;28;20228;-83
2023/06/08 00:58:56;;;;;;;8.83;8.03;;;;;;;17.02;86.19;100744.81;5080333;28;20655;-80
2023/06/08 01:01:25;;;;;;;9.20;7.90;;;;;;;16.91;85.89;100770.78;5079646;28;20238;-83
2023/06/08 01:03:55;;;;;;;7.70;7.00;;;;;;;16.77;85.42;100767.78;5080120;28;20243;-80
2023/06/08 01:06:21;;;;;;;9.33;7.30;;;;;;;16.61;86.00;100765.78;5080917;28;20208;-82
2023/06/08 01:08:58;;;;;;;9.43;7.67;;;;;;;16.52;85.65;100760.00;5080219;28;20261;-81
2023/06/08 01:11:34;;;;;;;8.77;7.30;;;;;;;16.47;84.68;100771.59;5080328;28;20207;-82
2023/06/08 01:14:25;;;;;;;8.03;7.13;;;;;;;16.47;85.83;100783.88;5081177;28;20234;-82
2023/06/08 01:16:56;;;;;;;8.30;7.57;;;;;;;16.60;84.26;100784.28;5080166;28;20703;-83
2023/06/08 01:19:33;;;;;;;13.07;6.73;;;;;;;16.58;84.00;100807.19;5079466;28;20207;-82
2023/06/08 01:22:09;;;;;;;8.73;7.90;;;;;;;16.55;83.08;100834.53;5080417;28;20231;-83
2023/06/08 01:24:38;;;;;;;9.70;8.23;;;;;;;16.56;82.93;100843.31;5081309;28;20268;-82
2023/06/08 01:27:07;;;;;;;8.67;7.10;;;;;;;16.44;83.35;100842.81;5080372;28;20212;-82
2023/06/08 01:29:34;;;;;;;7.97;7.27;;;;;;;16.40;82.72;100845.66;5080811;28;20215;-82
2023/06/08 01:32:01;;;;;;;7.27;6.23;;;;;;;16.49;85.84;100818.97;5081721;28;20243;-82
2023/06/08 01:34:28;;;;;;;6.77;5.97;;;;;;;16.67;87.34;100765.53;5080109;28;20655;-82
2023/06/08 01:37:01;;;;;;;8.70;6.00;;;;;;;16.60;83.41;100803.59;5079586;28;20235;-82
2023/06/08 01:39:46;;;;;;;7.33;6.57;;;;;;;16.36;80.99;100851.94;5079968;28;20365;-83
2023/06/08 01:42:18;;;;;;;7.53;6.73;;;;;;;16.42;80.23;100893.88;5079113;28;20235;-81
2023/06/08 01:44:50;;;;;;;9.03;7.00;;;;;;;16.44;79.45;100915.75;5078360;28;20199;-82
2023/06/08 01:47:19;;;;;;;7.50;6.47;;;;;;;16.52;79.99;100926.03;5079305;28;20204;-83
2023/06/08 01:49:48;;;;;;;6.07;5.53;;;;;;;16.64;80.86;100907.97;5078719;28;20295;-83
2023/06/08 01:52:15;;;;;;;7.43;6.60;;;;;;;16.63;81.67;100879.91;5079717;28;20232;-82
2023/06/08 01:54:43;;;;;;;7.63;6.80;;;;;;;16.33;84.02;100846.78;5085129;28;20204;-83
2023/06/08 01:57:09;;;;;;;8.77;7.23;;;;;;;15.86;86.96;100785.22;5084051;28;20290;-84
2023/06/08 01:59:36;;;;;;;9.00;7.23;;;;;;;15.40;89.11;100702.59;5081040;28;20207;-84
2023/06/08 02:02:02;;;;;;;8.27;7.47;;;;;;;15.26;91.75;100647.84;5077646;28;20236;-83
2023/06/08 02:04:28;;;;;;;8.03;7.23;;;;;;;14.99;93.89;100596.22;5076464;28;20249;-82
2023/06/08 02:06:55;;;;;;;10.77;7.60;;;;;;;14.98;96.19;100539.28;5077279;28;20206;-83
2023/06/08 02:09:22;;;;;;;8.10;7.40;;;;;;;14.71;96.97;100510.44;5077398;28;20289;-85
2023/06/08 02:11:49;;;;;;;8.60;7.77;;;;;;;14.74;99.91;100476.16;5076634;28;20631;-85
2023/06/08 02:14:16;;;;;;;9.27;7.93;;;;;;;14.61;100.00;100443.38;5079363;28;20203;-83
2023/06/08 02:16:45;;;;;;;9.40;7.50;;;;;;;14.47;100.00;100454.34;5077469;28;20211;-84
2023/06/08 02:19:14;;;;;;;9.30;8.10;;;;;;;14.58;100.00;100443.47;5078312;28;20649;-85
2023/06/08 02:21:42;;;;;;;10.53;8.47;;;;;;;14.56;99.01;100472.41;5078490;28;20773;-84
2023/06/08 02:24:08;;;;;;;9.47;8.47;;;;;;;14.44;100.00;100465.78;5077934;28;20214;-84
2023/06/08 02:26:36;;;;;;;9.20;7.67;;;;;;;14.35;100.00;100454.75;5078719;28;20754;-83
2023/06/08 02:29:04;;;;;;;8.33;7.60;;;;;;;14.48;99.85;100470.03;5080325;28;20590;-85
2023/06/08 02:31:30;;;;;;;11.57;8.27;;;;;;;14.36;100.00;100472.22;5082217;28;20212;-85
2023/06/08 02:33:57;;;;;;;8.90;8.00;;;;;;;14.27;100.00;100479.50;5082785;28;20198;-83
2023/06/08 02:36:24;;;;;;;12.17;8.77;;;;;;;14.18;100.00;100478.97;5083869;28;20582;-83
2023/06/08 02:38:51;;;;;;;8.83;7.63;;;;;;;14.17;100.00;100482.47;5084099;28;20223;-84
2023/06/08 02:41:18;;;;;;;9.60;8.57;;;;;;;14.16;100.00;100502.63;5083406;28;20278;-83
2023/06/08 02:43:44;;;;;;;9.73;7.83;;;;;;;14.38;100.00;100479.13;5083833;28;20213;-84
2023/06/08 02:46:12;;;;;;;9.50;8.00;;;;;;;14.30;100.00;100500.41;5083030;28;20209;-83
2023/06/08 02:48:38;;;;;;;9.40;8.23;;;;;;;14.29;99.06;100529.31;5084492;28;20322;-85
2023/06/08 02:51:05;;;;;;;8.30;7.60;;;;;;;14.47;98.37;100546.28;5084745;28;20269;-83
2023/06/08 02:53:31;;;;;;;10.03;8.23;;;;;;;14.47;96.26;100588.28;5079701;22;20328;-74
2023/06/08 02:55:58;;;;;;;8.77;7.60;;;;;;;14.43;96.14;100599.78;5071298;28;20742;-75
2023/06/08 02:58:25;;;;;;;10.10;8.13;;;;;;;14.48;96.29;100616.25;5071587;28;20254;-75
2023/06/08 03:00:53;;;;;;;9.60;7.47;;;;;;;14.65;96.67;100616.63;5071536;28;20205;-74
2023/06/08 03:03:23;;;;;;;9.43;7.77;;;;;;;14.83;99.59;100593.25;5071388;28;20242;-74
2023/06/08 03:05:49;;;;;;;9.23;8.13;;;;;;;14.69;100.00;100570.94;5071568;28;20215;-74
2023/06/08 03:08:16;;;;;;;9.53;8.57;;;;;;;14.85;100.00;100546.75;5071335;28;20235;-74
2023/06/08 03:10:42;;;;;;;9.83;8.93;;;;;;;14.62;99.47;100579.06;5071520;28;20257;-74
2023/06/08 03:13:08;;;;;;;9.53;8.63;;;;;;;14.41;100.00;100578.84;5072023;28;20235;-74
2023/06/08 03:15:35;;;;;;;8.53;7.67;;;;;;;14.21;99.63;100576.84;5071338;28;20203;-74
2023/06/08 03:18:02;;;;;;;12.33;8.33;;;;;;;14.13;100.00;100568.34;5070947;28;20263;-74
2023/06/08 03:20:30;;;;;;;9.20;8.33;;;;;;;14.12;100.00;100537.75;5071939;28;20202;-74
2023/06/08 03:22:57;;;;;;;9.37;8.43;;;;;;;13.90;100.00;100535.81;5075189;28;20269;-74
2023/06/08 03:25:23;;;;;;;11.53;9.20;;;;;;;13.82;100.00;100556.19;5075395;28;20216;-74
2023/06/08 03:27:50;;;;;;;11.43;8.73;;;;;;;13.84;100.00;100562.25;5055061;28;20206;-74
2023/06/08 03:30:16;;;;;;;10.47;8.10;;;;;;;13.77;100.00;100565.94;5055699;28;20704;-75
2023/06/08 03:32:48;;;;;;;9.60;8.70;;;;;;;13.75;100.00;100569.53;5055462;28;20229;-74
2023/06/08 03:35:15;;;;;;;9.00;7.80;;;;;;;13.70;100.00;100580.19;5055345;28;20210;-74
2023/06/08 03:37:43;;;;;;;14.83;8.60;;;;;;;13.74;100.00;100576.56;5055113;28;20619;-74
2023/06/08 03:40:10;;;;;;;9.77;8.77;;;;;;;13.71;100.00;100571.38;5055385;28;20226;-74
2023/06/08 03:42:36;;;;;;;13.93;9.77;;;;;;;13.73;100.00;100573.97;5055410;28;20204;-74
2023/06/08 03:45:03;;;;;;;12.73;9.57;;;;;;;13.70;100.00;100586.28;5055382;28;20263;-74
2023/06/08 03:47:31;;;;;;;10.47;9.07;;;;;;;13.78;100.00;100582.56;5054809;28;20616;-74
2023/06/08 03:49:57;;;;;;;16.37;10.20;;;;;;;13.73;100.00;100592.34;5054837;28;20233;-74
2023/06/08 03:52:24;;;;;;;13.27;9.20;;;;;;;13.67;100.00;100590.75;5054788;28;20286;-74
2023/06/08 03:54:52;;;;;;;10.80;8.20;;;;;;;13.73;100.00;100584.47;5054748;28;20673;-74
2023/06/08 03:57:18;;;;;;;12.67;8.40;;;;;;;13.72;100.00;100588.00;5054818;28;20641;-75
2023/06/08 03:59:44;;;;;;;10.00;8.37;;;;;;;13.67;100.00;100593.38;5054771;28;20226;-74
2023/06/08 04:02:11;;;;;;;13.70;8.87;;;;;;;13.58;100.00;100596.28;5055193;28;20233;-74
2023/06/08 04:04:39;;;;;;;12.53;9.63;;;;;;;13.49;100.00;100592.13;5054642;28;20210;-74
2023/06/08 04:07:05;;;;;;;10.73;8.43;;;;;;;13.43;100.00;100572.19;5054868;28;20237;-74
2023/06/08 04:09:31;;;;;;;17.03;9.43;;;;;;;13.40;100.00;100561.81;5054573;28;20269;-74
2023/06/08 04:11:59;;;;;;;11.00;8.63;;;;;;;13.34;100.00;100554.13;5054562;28;20225;-74
2023/06/08 04:14:26;;;;;;;10.63;9.53;;;;;;;13.31;100.00;100543.72;5054697;28;20313;-74
2023/06/08 04:16:52;;;;;;;10.93;9.83;;;;;;;13.33;100.00;100551.53;5054520;28;20206;-74
2023/06/08 04:19:19;;;;;;;14.50;9.40;;;;;;;13.48;100.00;100572.94;5054331;28;20226;-74
2023/06/08 04:21:45;;;;;;;13.80;9.40;;;;;;;13.44;100.00;100567.81;5054731;28;20265;-74
2023/06/08 04:24:11;;;;;;;10.80;9.40;;;;;;;13.53;100.00;100572.78;5054601;28;20617;-74
2023/06/08 04:26:38;;;;;;;10.40;9.00;;;;;;;13.51;100.00;100569.34;5053974;28;20237;-74
2023/06/08 04:29:06;;;;;;;11.93;9.47;;;;;;;13.69;100.00;100575.81;5059968;28;20707;-74
2023/06/08 04:31:33;;;;;;;14.03;9.57;;;;;;;13.64;100.00;100610.06;5074369;28;20214;-74
2023/06/08 04:34:00;;;;;;;11.93;9.73;;;;;;;13.56;100.00;100616.41;5073075;28;20229;-74
2023/06/08 04:36:26;;;;;;;16.07;9.37;;;;;;;13.50;100.00;100613.09;5073762;28;20205;-74
2023/06/08 04:38:53;;;;;;;11.53;10.00;;;;;;;13.56;100.00;100604.19;5074315;28;20234;-74
2023/06/08 04:41:19;;;;;;;14.43;9.67;;;;;;;13.60;100.00;100605.81;5073952;28;20272;-74
2023/06/08 04:43:49;;;;;;;10.03;9.13;;;;;;;13.81;100.00;100629.69;5073957;28;20296;-74
2023/06/08 04:46:17;;;;;;;12.80;9.47;;;;;;;13.78;100.00;100637.66;5073667;28;20205;-74
2023/06/08 04:48:43;;;;;;;12.30;9.67;;;;;;;13.76;100.00;100649.97;5073979;28;20232;-74
2023/06/08 04:51:10;;;;;;;13.97;8.50;;;;;;;14.00;100.00;100651.00;5074014;28;20279;-75
2023/06/08 04:53:37;;;;;;;11.10;8.47;;;;;;;14.19;100.00;100639.06;5073718;28;20710;-74
2023/06/08 04:56:04;;;;;;;13.30;9.33;;;;;;;14.41;100.00;100648.88;5068810;28;20210;-74
2023/06/08 04:58:32;;;;;;;10.90;9.80;;;;;;;14.52;98.26;100678.28;5053461;28;20633;-74
2023/06/08 05:00:59;;;;;;;10.27;8.73;;;;;;;14.57;97.06;100715.84;5053674;28;20254;-74
2023/06/08 05:03:27;;;;;;;11.30;9.23;;;;;;;14.74;97.02;100738.09;5068082;22;20287;-76
2023/06/08 05:05:54;;;;;;;10.33;8.97;;;;;;;14.87;96.98;100735.03;5053303;28;20705;-76
2023/06/08 05:08:20;;;;;;;9.37;8.43;;;;;;;14.93;96.25;100759.41;5053284;28;20234;-76
2023/06/08 05:10:46;;;;;;;11.00;9.07;;;;;;;14.54;96.37;100764.94;5053798;28;20216;-76
2023/06/08 05:13:13;;;;;;;11.90;9.87;;;;;;;14.28;96.85;100759.53;5052863;28;20232;-76
2023/06/08 05:15:39;;;;;;;15.37;10.90;;;;;;;14.16;98.89;100738.06;5052300;28;20214;-76
2023/06/08 05:18:06;;;;;;;18.77;10.13;;;;;;;14.02;99.95;100706.94;5053045;28;20269;-76
2023/06/08 05:20:34;;;;;;;13.60;10.80;;;;;;;13.82;100.00;100674.25;5053491;28;20580;-74
2023/06/08 05:23:00;;;;;;;11.10;9.70;;;;;;;13.74;100.00;100659.66;5053359;28;20675;-73
2023/06/08 05:25:29;;;;;;;13.00;10.27;;;;;;;13.92;100.00;100645.16;5053432;28;20264;-74
2023/06/08 05:27:55;;;;;;;17.70;10.67;;;;;;;14.07;100.00;100629.78;5051683;28;20195;-73
2023/06/08 05:30:22;;;;;;;11.30;10.07;;;;;;;14.24;100.00;100636.28;5053413;28;20261;-72
2023/06/08 05:32:48;;;;;;;14.10;10.80;;;;;;;14.16;100.00;100657.53;5053329;28;20287;-73
2023/06/08 05:35:15;;;;;;;11.87;10.70;;;;;;;13.93;100.00;100645.06;5053522;28;20445;-73
2023/06/08 05:37:42;;;;;;;13.37;10.90;;;;;;;14.03;100.00;100633.41;5053488;28;20302;-73
2023/06/08 05:40:09;;;;;;;16.90;11.40;;;;;;;13.95;100.00;100638.00;5053221;28;20223;-76
2023/06/08 05:42:36;;;;;;;14.63;10.97;;;;;;;13.88;100.00;100634.72;5053093;28;20203;-75
2023/06/08 05:45:02;;;;;;;16.17;10.87;;;;;;;13.66;100.00;100638.88;5051650;28;20211;-73
2023/06/08 05:47:28;;;;;;;17.70;11.70;;;;;;;13.70;100.00;100619.53;5052871;28;20213;-73
2023/06/08 05:49:55;;;;;;;20.07;11.50;;;;;;;13.92;100.00;100613.66;5053051;28;20280;-73
2023/06/08 05:52:21;;;;;;;12.20;10.47;;;;;;;13.92;100.00;100622.38;5052856;28;20261;-73
2023/06/08 05:54:50;;;;;;;14.27;9.67;;;;;;;14.21;100.00;100612.72;5052816;28;20671;-73
2023/06/08 05:57:17;;;;;;;17.47;10.97;;;;;;;14.39;100.00;100629.69;5052635;28;20317;-72
2023/06/08 05:59:43;;;;;;;14.47;11.77;;;;;;;14.28;99.70;100665.00;5052109;28;20273;-73
2023/06/08 06:02:09;;;;;;;15.70;10.90;;;;;;;14.32;99.03;100678.06;5052567;28;20264;-74
2023/06/08 06:04:36;;;;;;;12.33;11.03;;;;;;;14.41;99.69;100677.75;5052816;28;20608;-73
2023/06/08 06:07:04;;;;;;;14.53;11.30;;;;;;;14.35;99.26;100680.59;5052369;28;20206;-73
2023/06/08 06:09:31;;;;;;;14.33;10.63;;;;;;;14.51;99.18;100689.72;5052385;28;20710;-73
2023/06/08 06:11:59;;;;;;;15.70;11.10;;;;;;;14.74;97.70;100714.44;5052513;28;20203;-73
2023/06/08 06:14:25;;;;;;;18.97;10.83;;;;;;;14.92;96.73;100732.22;5052907;28;20232;-73
2023/06/08 06:16:52;;;;;;;16.57;11.30;;;;;;;14.99;94.99;100753.94;5052541;28;20211;-72
2023/06/08 06:19:18;;;;;;;15.27;10.73;;;;;;;15.10;94.40;100770.22;5052246;28;20593;-72
2023/06/08 06:21:44;;;;;;;14.40;10.57;;;;;;;15.18;93.73;100801.53;5052464;28;20214;-72
2023/06/08 06:24:11;;;;;;;14.97;11.73;;;;;;;15.37;93.43;100802.66;5052424;28;20207;-73
2023/06/08 06:26:37;;;;;;;16.43;11.27;;;;;;;15.27;93.14;100817.88;5052091;28;20212;-72
2023/06/08 06:29:05;;;;;;;11.80;10.57;;;;;;;15.35;92.37;100829.94;5045721;28;20835;-73
2023/06/08 06:31:32;;;;;;;16.53;11.30;;;;;;;15.43;92.31;100839.28;5052088;28;20203;-73
2023/06/08 06:33:58;;;;;;;16.30;11.93;;;;;;;15.21;93.10;100839.09;5052191;28;20228;-73
2023/06/08 06:36:26;;;;;;;13.37;11.97;;;;;;;14.94;93.61;100845.22;5051882;28;20681;-72
2023/06/08 06:38:54;;;;;;;14.90;11.93;;;;;;;15.01;94.35;100815.22;5051826;28;20259;-73
2023/06/08 06:41:20;;;;;;;17.60;11.87;;;;;;;15.06;94.71;100800.16;5051817;28;20215;-74
2023/06/08 06:43:47;;;;;;;15.30;11.70;;;;;;;15.21;94.95;100790.91;5052235;28;20209;-73
2023/06/08 06:46:19;;;;;;;15.47;12.07;;;;;;;14.89;94.53;100796.28;5051827;28;20265;-73
2023/06/08 06:48:45;;;;;;;13.37;11.97;;;;;;;14.92;95.54;100782.19;5051144;28;20239;-73
2023/06/08 06:51:12;;;;;;;14.60;12.17;;;;;;;15.03;95.99;100779.22;5051642;28;20199;-73
2023/06/08 06:53:38;;;;;;;13.07;11.73;;;;;;;14.87;95.52;100774.44;5051789;28;20231;-73
2023/06/08 06:56:05;;;;;;;15.73;12.67;;;;;;;15.04;96.32;100760.78;5051035;28;20212;-73
2023/06/08 06:58:32;;;;;;;14.30;11.77;;;;;;;15.27;95.67;100762.63;5051454;28;20582;-73
2023/06/08 07:00:59;;;;;;;20.63;12.10;;;;;;;15.06;95.09;100779.09;5051637;28;20223;-73
2023/06/08 07:03:26;;;;;;;15.87;11.80;;;;;;;15.24;95.26;100772.41;5051792;28;20212;-73
2023/06/08 07:05:53;;;;;;;17.93;12.03;;;;;;;15.00;95.77;100764.38;5051726;28;20229;-73
2023/06/08 07:08:19;;;;;;;18.80;12.63;;;;;;;15.01;96.60;100747.72;5051382;28;20769;-73
2023/06/08 07:10:46;;;;;;;17.80;13.00;;;;;;;15.14;96.38;100739.44;5051914;28;20218;-73
2023/06/08 07:13:12;;;;;;;15.57;13.03;;;;;;;14.87;96.21;100758.69;5051847;28;20252;-73
2023/06/08 07:15:41;;;;;;;15.93;12.13;;;;;;;14.88;97.21;100742.00;5051680;28;20675;-73
2023/06/08 07:18:08;;;;;;;18.43;13.43;;;;;;;15.06;96.80;100742.31;5051466;28;20203;-73
2023/06/08 07:20:36;;;;;;;17.13;13.30;;;;;;;14.97;96.96;100745.25;5051733;28;20214;-73
2023/06/08 07:23:02;;;;;;;16.53;12.97;;;;;;;15.09;96.28;100744.84;5051554;28;20610;-73
2023/06/08 07:25:29;;;;;;;13.97;12.33;;;;;;;15.28;95.83;100748.59;5051905;28;20209;-73
2023/06/08 07:27:55;;;;;;;16.63;12.27;;;;;;;15.56;94.98;100767.81;5051640;28;20207;-73
2023/06/08 07:30:21;;;;;;;17.20;12.17;;;;;;;15.68;95.21;100781.44;5051593;28;20211;-73
2023/06/08 07:32:49;;;;;;;15.90;12.43;;;;;;;15.82;93.73;100801.19;5051526;28;20282;-73
2023/06/08 07:35:15;;;;;;;14.33;12.23;;;;;;;15.81;92.81;100831.88;5051500;28;20214;-73
2023/06/08 07:37:43;;;;;;;14.17;11.93;;;;;;;15.86;91.84;100847.56;5051267;28;20212;-73
2023/06/08 07:40:11;;;;;;;14.70;13.10;;;;;;;16.08;91.12;100856.41;5051308;28;20717;-73
2023/06/08 07:42:38;;;;;;;27.13;13.10;;;;;;;16.28;89.96;100873.28;5051640;28;20299;-73
2023/06/08 07:45:05;;;;;;;14.20;12.33;;;;;;;16.31;89.60;100888.97;5051585;28;20554;-74
2023/06/08 07:47:33;;;;;;;14.93;12.27;;;;;;;16.31;90.06;100888.13;5051384;28;20212;-73
2023/06/08 07:50:00;;;;;;;13.90;12.57;;;;;;;16.40;89.62;100898.34;5051425;28;20236;-73
2023/06/08 07:52:26;;;;;;;14.17;12.87;;;;;;;16.42;89.07;100917.59;5050105;28;20216;-73
2023/06/08 07:54:54;;;;;;;14.70;11.77;;;;;;;16.36;88.49;100929.19;5049825;28;20232;-74
2023/06/08 07:57:20;;;;;;;13.37;12.07;;;;;;;16.53;87.71;100938.28;5050678;28;20212;-74
2023/06/08 07:59:46;;;;;;;13.60;12.30;;;;;;;16.57;87.70;100946.03;5049732;28;20223;-74
2023/06/08 08:02:13;;;;;;;13.50;12.33;;;;;;;16.70;87.30;100946.44;5051116;28;20212;-74
2023/06/08 08:04:39;;;;;;;19.77;13.10;;;;;;;16.81;87.08;100952.22;5051153;28;20208;-74
2023/06/08 08:07:06;;;;;;;19.57;13.70;;;;;;;16.46;87.25;100961.34;5050952;28;20212;-74
2023/06/08 08:09:33;;;;;;;16.07;12.17;;;;;;;16.47;88.95;100920.91;5054033;28;20286;-74
2023/06/08 08:12:00;;;;;;;21.57;12.37;;;;;;;16.12;89.37;100909.00;5054872;28;20208;-74
2023/06/08 08:14:27;;;;;;;18.40;12.80;;;;;;;15.89;91.69;100873.75;5054756;28;20228;-74
2023/06/08 08:16:53;;;;;;;18.60;14.27;;;;;;;15.81;94.19;100807.34;5054759;28;20212;-74
2023/06/08 08:19:20;;;;;;;18.00;13.57;;;;;;;15.64;95.80;100764.03;5054456;28;20273;-74
2023/06/08 08:21:47;;;;;;;15.00;13.13;;;;;;;15.98;95.44;100741.81;5054591;28;20748;-74
2023/06/08 08:24:13;;;;;;;16.03;13.20;;;;;;;15.98;95.47;100728.63;5054826;28;20209;-74
2023/06/08 08:26:41;;;;;;;20.43;14.13;;;;;;;15.90;97.14;100704.38;5054643;28;20212;-73
2023/06/08 08:29:09;;;;;;;16.00;14.40;;;;;;;15.68;98.93;100663.00;5054273;28;20228;-73
2023/06/08 08:31:35;;;;;;;22.87;14.07;;;;;;;15.83;100.00;100622.09;5054377;28;20207;-73
2023/06/08 08:34:01;;;;;;;15.33;13.63;;;;;;;16.12;100.00;100635.94;5054236;28;20248;-73
2023/06/08 08:36:28;;;;;;;17.77;14.73;;;;;;;15.91;96.86;100692.06;5054455;28;20266;-73
2023/06/08 08:38:54;;;;;;;19.20;13.87;;;;;;;16.18;97.01;100703.34;5054578;28;20227;-74
2023/06/08 08:41:21;;;;;;;15.87;13.63;;;;;;;16.39;97.24;100691.97;5054495;28;20712;-74
2023/06/08 08:43:53;;;;;;;19.80;14.40;;;;;;;16.46;96.35;100718.94;5054612;28;20208;-74
2023/06/08 08:46:25;;;;;;;19.17;14.33;;;;;;;16.69;96.11;100720.69;5054120;28;20205;-74
2023/06/08 08:48:53;;;;;;;15.67;13.40;;;;;;;16.84;94.18;100753.50;5054316;28;20323;-73
2023/06/08 08:51:20;;;;;;;16.57;13.90;;;;;;;16.95;94.34;100780.31;5054461;28;20215;-73
2023/06/08 08:53:47;;;;;;;15.13;13.60;;;;;;;17.10;94.69;100772.69;5054319;28;20241;-73
2023/06/08 08:56:15;;;;;;;20.50;14.10;;;;;;;17.11;97.71;100732.22;5054455;28;20731;-73
2023/06/08 08:58:43;;;;;;;15.67;14.17;;;;;;;16.89;99.90;100690.91;5053600;28;20278;-74
2023/06/08 09:01:10;;;;;;;16.97;14.57;;;;;;;16.72;99.94;100672.22;5053853;28;20559;-74
2023/06/08 09:03:39;;;;;;;20.90;14.13;;;;;;;16.49;99.39;100663.50;5054020;28;20312;-74
2023/06/08 09:06:06;;;;;;;19.67;13.90;;;;;;;16.61;98.83;100672.66;5053911;28;20274;-74
2023/06/08 09:08:33;;;;;;;17.33;14.23;;;;;;;16.81;97.71;100692.97;5053539;28;20603;-74
2023/06/08 09:11:04;;;;;;;16.30;13.50;;;;;;;16.99;96.96;100720.38;5054089;28;20250;-74
2023/06/08 09:13:30;;;;;;;14.90;12.97;;;;;;;17.12;97.59;100712.81;5053448;28;20697;-74
2023/06/08 09:15:57;;;;;;;21.07;12.90;;;;;;;17.19;98.31;100706.38;5053849;28;20207;-74
2023/06/08 09:18:24;;;;;;;16.80;15.00;;;;;;;17.07;100.00;100663.75;5053793;28;20228;-74
2023/06/08 09:20:52;;;;;;;16.03;14.30;;;;;;;17.07;100.00;100624.19;5053280;28;20212;-73
2023/06/08 09:23:23;;;;;;;24.03;14.60;;;;;;;16.99;100.00;100622.81;5053605;28;20209;-74
2023/06/08 09:25:51;;;;;;;17.90;15.23;;;;;;;17.14;100.00;100613.38;5053456;28;20243;-73
2023/06/08 09:28:22;;;;;;;18.70;14.57;;;;;;;17.26;100.00;100621.63;5052957;28;20228;-74
2023/06/08 09:30:49;;;;;;;15.00;13.60;;;;;;;17.37;100.00;100644.88;5053548;28;20317;-74
2023/06/08 09:33:24;;;;;;;18.27;14.77;;;;;;;17.57;100.00;100670.38;5053444;28;20226;-74
2023/06/08 09:36:15;;;;;;;14.60;13.20;;;;;;;17.67;98.75;100695.44;5053535;28;20206;-74
2023/06/08 09:38:43;;;;;;;16.63;14.93;;;;;;;17.71;100.00;100693.53;5053284;28;20237;-74
2023/06/08 09:41:14;;;;;;;15.80;14.40;;;;;;;17.61;100.00;100637.66;5053372;28;20334;-74
2023/06/08 09:43:43;;;;;;;17.87;14.33;;;;;;;17.55;100.00;100592.19;5053329;28;20693;-74
2023/06/08 09:46:11;;;;;;;17.57;15.00;;;;;;;17.61;100.00;100603.31;5053227;28;20575;-74
2023/06/08 09:48:39;;;;;;;18.27;14.33;;;;;;;17.64;100.00;100603.19;5053295;28;20732;-74
2023/06/08 09:51:06;;;;;;;16.43;13.43;;;;;;;17.73;100.00;100617.75;5052914;28;20775;-74
2023/06/08 09:53:36;;;;;;;14.60;13.13;;;;;;;17.86;100.00;100652.44;5053112;28;20208;-73
2023/06/08 09:56:05;;;;;;;16.73;14.43;;;;;;;17.89;100.00;100668.13;5052857;28;20299;-73
2023/06/08 09:58:37;;;;;;;37.30;14.17;;;;;;;17.78;100.00;100673.88;5052753;28;20270;-73
2023/06/08 10:01:07;;;;;;;19.23;15.80;;;;;;;17.81;100.00;100689.56;5052890;28;20212;-71
2023/06/08 10:03:39;;;;;;;15.57;14.13;;;;;;;17.88;99.83;100700.75;5052525;28;20217;-71
2023/06/08 10:06:07;;;;;;;18.13;16.30;;;;;;;17.59;99.60;100709.94;5052920;28;20255;-71
2023/06/08 10:08:38;;;;;;;22.20;17.40;;;;;;;17.03;100.00;100671.88;5058440;28;20248;-71
2023/06/08 10:11:05;;;;;;;18.30;15.43;;;;;;;16.90;100.00;100657.47;5057925;28;20204;-71
2023/06/08 10:13:32;;;;;;;21.33;16.90;;;;;;;16.97;100.00;100641.31;5052422;28;20671;-71
2023/06/08 10:15:59;;;;;;;18.50;16.17;;;;;;;17.01;100.00;100607.78;5052726;28;20212;-71
2023/06/08 10:18:27;;;;;;;21.73;16.77;;;;;;;17.32;100.00;100609.91;5052297;28;20287;-71
2023/06/08 10:20:54;;;;;;;17.93;16.17;;;;;;;17.46;100.00;100615.44;5052524;28;20208;-71
2023/06/08 10:23:21;;;;;;;21.80;17.03;;;;;;;17.49;100.00;100630.28;5052444;28;20282;-71
2023/06/08 10:25:50;;;;;;;21.07;16.10;;;;;;;17.38;100.00;100646.59;5052406;28;20215;-72
2023/06/08 10:28:20;;;;;;;20.07;16.33;;;;;;;17.57;100.00;100667.75;5051810;28;20237;-72
2023/06/08 10:30:47;;;;;;;17.20;14.47;;;;;;;17.78;99.78;100678.25;5051520;28;20308;-72
2023/06/08 10:33:15;;;;;;;19.53;14.63;;;;;;;17.82;98.60;100701.84;5051928;28;20564;-72
2023/06/08 10:35:42;;;;;;;18.73;15.73;;;;;;;17.72;99.44;100684.69;5054694;28;20578;-72
2023/06/08 10:38:11;;;;;;;19.10;17.00;;;;;;;17.66;96.62;100725.44;5051990;28;20212;-72
2023/06/08 10:40:44;;;;;;;17.97;16.03;;;;;;;17.61;96.30;100737.09;5051677;28;20603;-71
2023/06/08 10:43:13;;;;;;;18.20;16.60;;;;;;;17.54;95.01;100764.69;5051836;28;20209;-72
2023/06/08 10:45:41;;;;;;;19.40;16.47;;;;;;;17.56;96.54;100747.88;5052188;28;20208;-72
2023/06/08 10:48:08;;;;;;;20.97;17.73;;;;;;;17.39;96.87;100751.22;5051844;28;20282;-72
2023/06/08 10:50:37;;;;;;;21.43;17.27;;;;;;;17.65;97.15;100733.41;5052192;28;20215;-72
2023/06/08 10:53:04;;;;;;;18.83;16.90;;;;;;;17.55;99.13;100709.19;5051865;28;20230;-72
2023/06/08 10:55:31;;;;;;;21.97;17.77;;;;;;;17.56;99.43;100689.81;5051438;28;20636;-72
2023/06/08 10:58:05;;;;;;;20.03;17.03;;;;;;;17.60;98.36;100699.31;5051625;28;20201;-72
2023/06/08 11:00:43;;;;;;;20.47;17.03;;;;;;;17.76;98.21;100695.97;5051833;28;20295;-74
2023/06/08 11:03:11;;;;;;;19.53;17.50;;;;;;;17.64;97.08;100703.53;5065339;23;20220;-74
2023/06/08 11:05:39;;;;;;;23.47;17.97;;;;;;;17.44;96.43;100737.81;5051417;28;20208;-76
2023/06/08 11:08:07;;;;;;;19.27;17.27;;;;;;;17.36;98.14;100713.53;5053272;28;20265;-76
2023/06/08 11:10:36;;;;;;;20.30;17.80;;;;;;;17.40;97.68;100716.00;5071806;28;20211;-75
2023/06/08 11:13:07;;;;;;;22.20;18.67;;;;;;;17.58;99.43;100677.41;5071582;28;20624;-75
2023/06/08 11:15:37;;;;;;;18.17;16.27;;;;;;;17.93;99.75;100671.47;5071374;28;20231;-75